createdAt,value
2022-10-08T00:00:48.553Z,16.78
2022-10-08T00:03:16.106Z,16.71
2022-10-08T00:05:42.709Z,16.21
2022-10-08T00:08:09.820Z,16.30
2022-10-08T00:10:37.264Z,15.97
2022-10-08T00:13:04.513Z,16.24
2022-10-08T00:15:36.376Z,16.32
2022-10-08T00:18:03.017Z,16.55
2022-10-08T00:20:29.637Z,16.38
2022-10-08T00:22:56.257Z,16.52
2022-10-08T00:25:23.001Z,16.55
2022-10-08T00:27:50.224Z,16.63
2022-10-08T00:30:16.777Z,16.73
2022-10-08T00:32:44.549Z,16.77
2022-10-08T00:35:11.388Z,16.82
2022-10-08T00:37:37.892Z,16.85
2022-10-08T00:40:04.720Z,16.88
2022-10-08T00:42:31.301Z,16.85
2022-10-08T00:45:00.033Z,16.75
2022-10-08T00:47:32.479Z,16.91
2022-10-08T00:50:08.610Z,16.84
2022-10-08T00:52:55.904Z,16.76
2022-10-08T00:55:24.382Z,16.58
2022-10-08T00:57:52.005Z,16.49
2022-10-08T01:00:21.636Z,16.52
2022-10-08T01:02:48.825Z,16.22
2022-10-08T01:05:19.576Z,15.86
2022-10-08T01:07:52.126Z,15.60
2022-10-08T01:10:18.912Z,14.91
2022-10-08T01:13:13.571Z,15.19
2022-10-08T01:15:44.679Z,15.14
2022-10-08T01:18:43.597Z,14.83
2022-10-08T01:21:14.568Z,14.79
2022-10-08T01:24:14.656Z,14.96
2022-10-08T01:27:04.601Z,14.60
2022-10-08T01:29:40.626Z,14.59
2022-10-08T01:32:17.403Z,14.92
2022-10-08T01:34:58.160Z,15.00
2022-10-08T01:37:31.888Z,15.29
2022-10-08T01:40:00.932Z,15.17
2022-10-08T01:42:27.978Z,14.94
2022-10-08T01:44:58.211Z,15.35
2022-10-08T01:47:30.915Z,15.25
2022-10-08T01:50:01.482Z,15.09
2022-10-08T01:52:34.145Z,15.00
2022-10-08T01:55:04.528Z,15.47
2022-10-08T01:57:33.263Z,15.58
2022-10-08T02:00:09.389Z,15.84
2022-10-08T02:02:38.951Z,15.88
2022-10-08T02:05:05.999Z,15.94
2022-10-08T02:07:37.474Z,16.01
2022-10-08T02:10:09.474Z,15.95
2022-10-08T02:12:36.713Z,15.98
2022-10-08T02:15:04.506Z,15.90
2022-10-08T02:17:39.259Z,15.92
2022-10-08T02:20:16.819Z,15.70
2022-10-08T02:22:54.250Z,15.91
2022-10-08T02:25:30.455Z,15.90
2022-10-08T02:28:31.571Z,15.66
2022-10-08T02:31:07.674Z,15.88
2022-10-08T02:33:48.185Z,16.04
2022-10-08T02:36:15.384Z,16.07
2022-10-08T02:38:44.273Z,16.01
2022-10-08T02:41:11.508Z,16.08
2022-10-08T02:43:43.083Z,15.91
2022-10-08T02:46:15.675Z,15.70
2022-10-08T02:48:45.634Z,15.88
2022-10-08T02:51:15.575Z,16.03
2022-10-08T02:53:42.189Z,16.01
2022-10-08T02:56:15.271Z,15.67
2022-10-08T02:58:43.089Z,15.85
2022-10-08T03:01:19.823Z,15.56
2022-10-08T03:03:49.166Z,15.70
2022-10-08T03:06:16.450Z,16.06
2022-10-08T03:08:45.124Z,16.18
2022-10-08T03:11:12.617Z,16.30
2022-10-08T03:13:42.831Z,16.12
2022-10-08T03:16:12.093Z,16.17
2022-10-08T03:18:39.294Z,16.25
2022-10-08T03:21:08.260Z,16.44
2022-10-08T03:23:37.077Z,16.48
2022-10-08T03:26:03.603Z,16.41
2022-10-08T03:28:30.521Z,16.34
2022-10-08T03:30:57.623Z,16.44
2022-10-08T03:33:24.373Z,16.51
2022-10-08T03:35:50.929Z,16.63
2022-10-08T03:38:17.504Z,16.66
2022-10-08T03:40:54.644Z,16.51
2022-10-08T03:43:21.205Z,16.56
2022-10-08T03:45:54.631Z,16.41
2022-10-08T03:48:22.100Z,16.10
2022-10-08T03:50:53.712Z,16.28
2022-10-08T03:53:20.820Z,16.34
2022-10-08T03:55:47.625Z,16.40
2022-10-08T03:58:15.105Z,16.29
2022-10-08T04:00:42.234Z,16.42
2022-10-08T04:03:09.153Z,16.25
2022-10-08T04:05:35.753Z,15.89
2022-10-08T04:08:02.658Z,16.23
2022-10-08T04:10:29.253Z,16.34
2022-10-08T04:12:55.849Z,16.38
2022-10-08T04:15:22.446Z,16.39
2022-10-08T04:17:48.963Z,16.38
2022-10-08T04:20:15.524Z,16.43
2022-10-08T04:22:42.546Z,16.41
2022-10-08T04:25:09.103Z,16.58
2022-10-08T04:27:35.631Z,16.63
2022-10-08T04:30:02.166Z,16.33
2022-10-08T04:32:28.726Z,16.54
2022-10-08T04:34:55.323Z,16.10
2022-10-08T04:37:22.537Z,16.37
2022-10-08T04:39:49.117Z,15.67
2022-10-08T04:42:15.633Z,16.29
2022-10-08T04:44:42.168Z,16.41
2022-10-08T04:47:09.119Z,16.41
2022-10-08T04:49:35.719Z,16.42
2022-10-08T04:52:02.196Z,16.50
2022-10-08T04:54:28.747Z,16.34
2022-10-08T04:56:55.317Z,16.58
2022-10-08T04:59:21.919Z,16.50
2022-10-08T05:01:48.521Z,16.31
2022-10-08T05:04:15.125Z,15.79
2022-10-08T05:06:41.617Z,16.28
2022-10-08T05:09:08.961Z,16.11
2022-10-08T05:11:35.782Z,16.05
2022-10-08T05:14:02.688Z,16.09
2022-10-08T05:16:29.514Z,16.22
2022-10-08T05:18:56.520Z,15.84
2022-10-08T05:21:25.880Z,16.01
2022-10-08T05:24:00.846Z,16.21
2022-10-08T05:26:56.267Z,16.26
2022-10-08T05:29:16.753Z,15.79
2022-10-08T05:31:43.308Z,15.90
2022-10-08T05:34:09.998Z,15.71
2022-10-08T05:36:36.543Z,15.47
2022-10-08T05:39:04.692Z,15.59
2022-10-08T05:41:33.581Z,15.67
2022-10-08T05:44:02.082Z,15.65
2022-10-08T05:46:29.949Z,15.70
2022-10-08T05:49:03.297Z,15.76
2022-10-08T05:51:30.079Z,15.58
2022-10-08T05:53:57.879Z,15.17
2022-10-08T05:56:25.859Z,15.07
2022-10-08T05:58:53.551Z,15.20
2022-10-08T06:01:27.939Z,15.13
2022-10-08T06:03:56.922Z,15.55
2022-10-08T06:06:24.351Z,15.18
2022-10-08T06:08:59.873Z,15.42
2022-10-08T06:11:27.498Z,15.54
2022-10-08T06:13:57.683Z,15.68
2022-10-08T06:16:24.816Z,15.50
2022-10-08T06:18:51.735Z,15.22
2022-10-08T06:21:23.605Z,15.35
2022-10-08T06:23:57.795Z,15.63
2022-10-08T06:26:27.296Z,15.56
2022-10-08T06:28:55.301Z,15.66
2022-10-08T06:31:22.122Z,15.44
2022-10-08T06:33:48.903Z,15.34
2022-10-08T06:36:26.658Z,15.67
2022-10-08T06:38:57.953Z,15.25
2022-10-08T06:41:27.279Z,15.09
2022-10-08T06:43:54.352Z,15.34
2022-10-08T06:46:21.116Z,14.78
2022-10-08T06:48:47.970Z,15.17
2022-10-08T06:51:16.766Z,15.19
2022-10-08T06:53:44.084Z,15.52
2022-10-08T06:56:14.499Z,15.21
2022-10-08T06:58:42.284Z,15.63
2022-10-08T07:01:09.984Z,15.50
2022-10-08T07:03:36.969Z,15.96
2022-10-08T07:06:08.759Z,16.19
2022-10-08T07:08:38.471Z,16.01
2022-10-08T07:11:09.604Z,15.97
2022-10-08T07:13:37.279Z,16.10
2022-10-08T07:16:25.042Z,16.01
2022-10-08T07:18:52.587Z,16.02
2022-10-08T07:21:19.647Z,16.13
2022-10-08T07:23:46.233Z,15.91
2022-10-08T07:26:16.261Z,16.16
2022-10-08T07:28:44.108Z,16.15
2022-10-08T07:31:15.530Z,16.41
2022-10-08T07:33:42.120Z,16.63
2022-10-08T07:36:09.981Z,16.59
2022-10-08T07:38:36.454Z,16.36
2022-10-08T07:41:02.850Z,16.89
2022-10-08T07:43:29.258Z,16.20
2022-10-08T07:45:55.753Z,16.39
2022-10-08T07:48:22.231Z,16.11
2022-10-08T07:50:48.709Z,16.33
2022-10-08T07:53:15.129Z,16.00
2022-10-08T07:55:41.530Z,16.12
2022-10-08T07:58:08.421Z,16.71
2022-10-08T08:00:34.870Z,17.06
2022-10-08T08:03:01.591Z,17.24
2022-10-08T08:05:27.995Z,17.23
2022-10-08T08:07:54.425Z,16.77
2022-10-08T08:10:21.227Z,16.47
2022-10-08T08:12:48.015Z,16.49
2022-10-08T08:15:15.211Z,16.37
2022-10-08T08:17:41.591Z,16.76
2022-10-08T08:20:08.485Z,16.18
2022-10-08T08:22:35.595Z,15.94
2022-10-08T08:25:02.050Z,16.26
2022-10-08T08:27:28.427Z,15.89
2022-10-08T08:29:55.301Z,15.67
2022-10-08T08:32:26.117Z,16.25
2022-10-08T08:34:54.851Z,16.41
2022-10-08T08:37:21.314Z,17.12
2022-10-08T08:39:47.679Z,17.43
2022-10-08T08:42:33.449Z,17.12
2022-10-08T08:45:00.813Z,17.50
2022-10-08T08:47:36.817Z,17.15
2022-10-08T08:50:03.217Z,17.05
2022-10-08T08:52:30.181Z,17.28
2022-10-08T08:54:56.639Z,16.69
2022-10-08T08:57:31.385Z,17.01
2022-10-08T09:00:00.124Z,17.14
2022-10-08T09:02:27.804Z,17.22
2022-10-08T09:04:55.644Z,17.00
2022-10-08T09:07:23.207Z,16.86
2022-10-08T09:09:51.325Z,17.02
2022-10-08T09:12:20.973Z,17.25
2022-10-08T09:14:53.608Z,17.56
2022-10-08T09:17:20.977Z,16.96
2022-10-08T09:19:47.551Z,17.85
2022-10-08T09:22:16.995Z,17.56
2022-10-08T09:24:43.389Z,18.01
2022-10-08T09:27:19.223Z,18.13
2022-10-08T09:29:45.950Z,18.05
2022-10-08T09:32:16.495Z,17.24
2022-10-08T09:34:43.293Z,17.44
2022-10-08T09:37:19.132Z,18.30
2022-10-08T09:40:05.347Z,17.53
2022-10-08T09:42:31.803Z,17.08
2022-10-08T09:45:00.591Z,17.75
2022-10-08T09:47:27.138Z,17.60
2022-10-08T09:50:06.927Z,17.97
2022-10-08T09:52:34.090Z,17.83
2022-10-08T09:55:07.432Z,18.28
2022-10-08T09:57:43.958Z,17.50
2022-10-08T10:00:24.771Z,17.97
2022-10-08T10:02:55.492Z,17.56
2022-10-08T10:05:25.727Z,18.28
2022-10-08T10:07:52.226Z,17.96
2022-10-08T10:10:21.571Z,18.59
2022-10-08T10:12:49.809Z,18.66
2022-10-08T10:15:18.520Z,18.84
2022-10-08T10:17:47.609Z,18.12
2022-10-08T10:20:20.036Z,18.30
2022-10-08T10:22:55.877Z,18.11
2022-10-08T10:25:28.401Z,18.44
2022-10-08T10:27:56.262Z,17.92
2022-10-08T10:30:23.422Z,18.00
2022-10-08T10:32:53.423Z,17.47
2022-10-08T10:35:27.299Z,17.93
2022-10-08T10:38:03.746Z,17.46
2022-10-08T10:40:50.406Z,17.39
2022-10-08T10:43:37.964Z,17.47
2022-10-08T10:46:09.033Z,17.64
2022-10-08T10:48:35.456Z,17.34
2022-10-08T10:51:04.992Z,17.53
2022-10-08T10:53:31.392Z,17.53
2022-10-08T10:56:00.926Z,17.86
2022-10-08T10:58:40.369Z,17.49
2022-10-08T11:01:27.476Z,17.64
2022-10-08T11:03:59.838Z,17.07
2022-10-08T11:06:45.130Z,17.82
2022-10-08T11:09:14.587Z,17.60
2022-10-08T11:11:41.917Z,17.38
2022-10-08T11:14:28.731Z,17.55
2022-10-08T11:17:21.315Z,17.78
2022-10-08T11:20:07.360Z,17.36
2022-10-08T11:22:46.383Z,17.27
2022-10-08T11:26:19.119Z,16.96
2022-10-08T11:28:59.405Z,17.41
2022-10-08T11:31:42.367Z,17.86
2022-10-08T11:34:23.844Z,17.31
2022-10-08T11:37:01.809Z,17.17
2022-10-08T11:39:35.844Z,17.42
2022-10-08T11:42:39.201Z,17.40
2022-10-08T11:45:40.319Z,17.93
2022-10-08T11:48:25.341Z,17.85
2022-10-08T11:50:51.907Z,17.62
2022-10-08T11:53:22.278Z,17.53
2022-10-08T11:55:58.162Z,17.65
2022-10-08T11:58:30.441Z,17.00
2022-10-08T12:01:05.516Z,17.14
2022-10-08T12:03:35.136Z,17.27
2022-10-08T12:06:15.264Z,17.89
2022-10-08T12:08:57.866Z,17.81
2022-10-08T12:11:44.724Z,17.53
2022-10-08T12:14:11.266Z,17.51
2022-10-08T12:16:59.001Z,17.74
2022-10-08T12:19:34.763Z,17.86
2022-10-08T12:22:25.096Z,18.28
2022-10-08T12:24:55.999Z,18.13
2022-10-08T12:27:31.216Z,19.04
2022-10-08T12:30:01.897Z,18.67
2022-10-08T12:32:33.045Z,19.55
2022-10-08T12:35:00.183Z,19.98
2022-10-08T12:37:39.731Z,19.74
2022-10-08T12:40:32.337Z,19.21
2022-10-08T12:43:16.957Z,19.19
2022-10-08T12:45:59.108Z,18.50
2022-10-08T12:48:44.068Z,18.33
2022-10-08T12:51:38.669Z,17.75
2022-10-08T12:54:05.327Z,17.41
2022-10-08T12:56:32.108Z,17.27
2022-10-08T12:59:01.544Z,17.34
2022-10-08T13:01:28.612Z,17.85
2022-10-08T13:04:10.592Z,17.36
2022-10-08T13:06:37.207Z,17.69
2022-10-08T13:09:25.243Z,17.86
2022-10-08T13:11:57.201Z,18.84
2022-10-08T13:14:30.396Z,19.10
2022-10-08T13:16:57.455Z,18.91
2022-10-08T13:19:31.600Z,18.82
2022-10-08T13:22:01.116Z,19.08
2022-10-08T13:24:33.343Z,18.69
2022-10-08T13:26:59.999Z,18.63
2022-10-08T13:29:28.631Z,18.92
2022-10-08T13:32:14.911Z,18.23
2022-10-08T13:34:42.543Z,18.43
2022-10-08T13:37:21.103Z,18.44
2022-10-08T13:39:53.525Z,18.50
2022-10-08T13:42:22.043Z,18.35
2022-10-08T13:44:48.614Z,17.99
2022-10-08T13:47:18.073Z,18.66
2022-10-08T13:49:44.901Z,18.58
2022-10-08T13:52:16.253Z,18.67
2022-10-08T13:54:43.807Z,18.71
2022-10-08T13:57:10.548Z,19.35
2022-10-08T13:59:37.361Z,19.24
2022-10-08T14:02:04.803Z,18.61
2022-10-08T14:04:31.353Z,18.58
2022-10-08T14:06:58.878Z,18.18
2022-10-08T14:09:27.641Z,19.12
2022-10-08T14:11:56.616Z,18.47
2022-10-08T14:14:24.162Z,18.19
2022-10-08T14:16:51.576Z,17.74
2022-10-08T14:19:20.373Z,17.98
2022-10-08T14:21:48.593Z,18.27
2022-10-08T14:24:15.157Z,18.41
2022-10-08T14:26:41.916Z,17.92
2022-10-08T14:29:08.489Z,18.48
2022-10-08T14:31:35.070Z,18.15
2022-10-08T14:34:01.744Z,18.51
2022-10-08T14:36:40.688Z,18.58
2022-10-08T14:39:07.742Z,18.38
2022-10-08T14:41:34.333Z,18.61
2022-10-08T14:44:00.880Z,18.67
2022-10-08T14:46:27.475Z,18.34
2022-10-08T14:48:53.951Z,18.34
2022-10-08T14:51:20.813Z,18.25
2022-10-08T14:53:47.421Z,18.34
2022-10-08T14:56:14.001Z,18.20
2022-10-08T14:58:40.573Z,18.05
2022-10-08T15:01:07.135Z,17.99
2022-10-08T15:03:33.989Z,17.98
2022-10-08T15:06:00.993Z,18.16
2022-10-08T15:08:28.223Z,17.92
2022-10-08T15:10:54.809Z,18.00
2022-10-08T15:13:21.525Z,17.46
2022-10-08T15:15:48.560Z,17.85
2022-10-08T15:18:15.126Z,17.74
2022-10-08T15:20:41.651Z,17.68
2022-10-08T15:23:10.251Z,17.66
2022-10-08T15:25:37.118Z,17.65
2022-10-08T15:28:04.718Z,17.72
2022-10-08T15:30:31.910Z,17.66
2022-10-08T15:33:03.040Z,18.16
2022-10-08T15:35:34.646Z,17.61
2022-10-08T15:38:01.252Z,17.86
2022-10-08T15:40:30.277Z,17.69
2022-10-08T15:42:56.857Z,17.59
2022-10-08T15:45:23.371Z,17.64
2022-10-08T15:47:50.011Z,17.88
2022-10-08T15:50:16.589Z,17.67
2022-10-08T15:52:46.311Z,17.25
2022-10-08T15:55:13.258Z,16.99
2022-10-08T15:57:39.878Z,17.19
2022-10-08T16:00:07.009Z,17.29
2022-10-08T16:02:38.548Z,17.37
2022-10-08T16:05:05.995Z,17.15
2022-10-08T16:07:40.046Z,17.00
2022-10-08T16:10:07.410Z,17.20
2022-10-08T16:12:33.930Z,17.17
2022-10-08T16:15:00.802Z,17.21
2022-10-08T16:17:28.177Z,16.89
2022-10-08T16:19:54.763Z,16.45
2022-10-08T16:22:21.323Z,16.91
2022-10-08T16:24:47.858Z,16.66
2022-10-08T16:27:14.404Z,16.63
2022-10-08T16:29:40.928Z,16.59
2022-10-08T16:32:07.501Z,16.37
2022-10-08T16:34:35.991Z,16.11
2022-10-08T16:37:04.817Z,16.18
2022-10-08T16:39:31.429Z,16.25
2022-10-08T16:41:58.034Z,16.38
2022-10-08T16:44:24.607Z,16.18
2022-10-08T16:46:52.803Z,16.23
2022-10-08T16:49:26.033Z,16.13
2022-10-08T16:52:06.832Z,16.04
2022-10-08T16:54:33.836Z,16.05
2022-10-08T16:57:00.556Z,16.01
2022-10-08T16:59:28.774Z,15.97
2022-10-08T17:01:57.933Z,15.87
2022-10-08T17:04:26.744Z,15.79
2022-10-08T17:06:53.520Z,15.73
2022-10-08T17:09:20.821Z,15.66
2022-10-08T17:11:48.035Z,15.63
2022-10-08T17:14:14.692Z,15.61
2022-10-08T17:16:43.420Z,15.38
2022-10-08T17:19:10.438Z,15.39
2022-10-08T17:21:37.103Z,15.21
2022-10-08T17:24:03.773Z,15.14
2022-10-08T17:26:31.358Z,14.83
2022-10-08T17:29:04.051Z,14.83
2022-10-08T17:31:31.717Z,15.03
2022-10-08T17:33:59.377Z,15.03
2022-10-08T17:36:36.645Z,14.95
2022-10-08T17:39:05.837Z,14.93
2022-10-08T17:41:34.712Z,14.79
2022-10-08T17:44:03.331Z,14.90
2022-10-08T17:46:35.426Z,14.87
2022-10-08T17:49:02.438Z,14.77
2022-10-08T17:51:30.100Z,14.74
2022-10-08T17:54:01.564Z,14.66
2022-10-08T17:56:28.840Z,14.61
2022-10-08T17:58:55.825Z,14.56
2022-10-08T18:01:28.326Z,14.55
2022-10-08T18:03:59.589Z,14.52
2022-10-08T18:06:26.770Z,14.53
2022-10-08T18:08:57.438Z,14.55
2022-10-08T18:11:24.555Z,14.41
2022-10-08T18:13:51.208Z,14.44
2022-10-08T18:16:19.137Z,14.41
2022-10-08T18:18:46.313Z,14.35
2022-10-08T18:21:14.686Z,14.38
2022-10-08T18:23:42.822Z,14.35
2022-10-08T18:26:34.634Z,14.35
2022-10-08T18:29:06.627Z,14.46
2022-10-08T18:31:33.803Z,14.29
2022-10-08T18:34:03.336Z,14.29
2022-10-08T18:36:32.249Z,14.30
2022-10-08T18:39:04.685Z,14.34
2022-10-08T18:41:38.010Z,14.32
2022-10-08T18:44:06.039Z,14.19
2022-10-08T18:46:36.429Z,14.23
2022-10-08T18:49:03.807Z,14.29
2022-10-08T18:51:30.744Z,14.21
2022-10-08T18:53:58.445Z,14.23
2022-10-08T18:56:30.071Z,14.20
2022-10-08T18:59:03.677Z,14.18
2022-10-08T19:01:35.691Z,14.08
2022-10-08T19:04:04.623Z,13.83
2022-10-08T19:06:33.679Z,13.92
2022-10-08T19:09:01.083Z,13.86
2022-10-08T19:11:33.630Z,13.64
2022-10-08T19:14:00.820Z,13.25
2022-10-08T19:16:27.373Z,13.43
2022-10-08T19:18:57.055Z,13.52
2022-10-08T19:21:25.259Z,13.54
2022-10-08T19:23:52.238Z,13.63
2022-10-08T19:26:18.910Z,13.47
2022-10-08T19:28:47.906Z,13.71
2022-10-08T19:31:16.982Z,13.85
2022-10-08T19:33:50.241Z,13.81
2022-10-08T19:36:17.807Z,13.88
2022-10-08T19:38:45.303Z,13.75
2022-10-08T19:41:12.219Z,13.92
2022-10-08T19:43:42.037Z,13.89
2022-10-08T19:46:08.598Z,13.90
2022-10-08T19:48:35.171Z,13.97
2022-10-08T19:51:06.073Z,13.96
2022-10-08T19:53:33.345Z,13.88
2022-10-08T19:56:02.871Z,13.78
2022-10-08T19:58:29.407Z,13.91
2022-10-08T20:01:03.988Z,13.84
2022-10-08T20:03:30.559Z,13.81
2022-10-08T20:05:57.090Z,13.45
2022-10-08T20:08:24.185Z,13.59
2022-10-08T20:10:50.794Z,13.61
2022-10-08T20:13:17.455Z,13.49
2022-10-08T20:15:47.685Z,13.51
2022-10-08T20:18:18.237Z,13.36
2022-10-08T20:20:44.788Z,13.44
2022-10-08T20:23:11.408Z,13.44
2022-10-08T20:25:38.221Z,13.46
2022-10-08T20:28:04.918Z,13.37
2022-10-08T20:30:31.668Z,13.33
2022-10-08T20:32:58.292Z,13.20
2022-10-08T20:35:24.845Z,13.05
2022-10-08T20:37:51.361Z,12.96
2022-10-08T20:40:17.903Z,12.90
2022-10-08T20:42:44.409Z,12.85
2022-10-08T20:45:12.007Z,12.84
2022-10-08T20:47:38.513Z,12.81
2022-10-08T20:50:05.487Z,12.71
2022-10-08T20:52:31.980Z,12.64
2022-10-08T20:54:58.553Z,12.63
2022-10-08T20:57:25.088Z,12.62
2022-10-08T20:59:51.633Z,12.59
2022-10-08T21:02:19.926Z,12.62
2022-10-08T21:04:46.554Z,12.47
2022-10-08T21:07:13.641Z,12.52
2022-10-08T21:09:40.133Z,12.19
2022-10-08T21:12:10.691Z,12.30
2022-10-08T21:14:37.193Z,12.23
2022-10-08T21:17:03.827Z,12.46
2022-10-08T21:19:30.431Z,12.42
2022-10-08T21:21:57.439Z,11.83
2022-10-08T21:24:27.566Z,11.35
2022-10-08T21:26:54.094Z,11.29
2022-10-08T21:29:20.656Z,11.86
2022-10-08T21:31:47.245Z,11.84
2022-10-08T21:34:13.886Z,11.82
2022-10-08T21:36:41.025Z,11.94
2022-10-08T21:39:13.512Z,11.72
2022-10-08T21:41:51.783Z,11.86
2022-10-08T21:44:18.868Z,11.78
2022-10-08T21:46:45.472Z,11.48
2022-10-08T21:49:17.436Z,11.65
2022-10-08T21:51:44.359Z,11.75
2022-10-08T21:54:11.773Z,11.49
2022-10-08T21:56:39.707Z,11.46
2022-10-08T21:59:06.834Z,11.47
2022-10-08T22:01:37.806Z,11.47
2022-10-08T22:04:09.375Z,11.60
2022-10-08T22:06:39.529Z,11.73
2022-10-08T22:09:09.279Z,11.57
2022-10-08T22:11:35.869Z,11.73
2022-10-08T22:14:02.545Z,11.58
2022-10-08T22:16:29.689Z,11.50
2022-10-08T22:18:57.097Z,11.59
2022-10-08T22:21:24.307Z,11.50
2022-10-08T22:23:51.537Z,11.55
2022-10-08T22:26:20.748Z,11.44
2022-10-08T22:28:47.792Z,11.55
2022-10-08T22:31:16.026Z,11.59
2022-10-08T22:33:42.830Z,11.62
2022-10-08T22:36:23.569Z,11.61
2022-10-08T22:38:49.982Z,11.67
2022-10-08T22:41:22.175Z,11.55
2022-10-08T22:43:48.722Z,11.59
2022-10-08T22:46:20.922Z,11.62
2022-10-08T22:48:47.769Z,11.56
2022-10-08T22:51:16.970Z,11.55
2022-10-08T22:53:44.020Z,11.64
2022-10-08T22:56:14.216Z,11.70
2022-10-08T22:58:40.987Z,11.55
2022-10-08T23:01:11.097Z,11.56
2022-10-08T23:03:37.963Z,11.58
2022-10-08T23:06:13.366Z,11.55
2022-10-08T23:08:40.219Z,11.54
2022-10-08T23:11:07.055Z,11.35
2022-10-08T23:13:34.160Z,11.56
2022-10-08T23:16:05.238Z,11.53
2022-10-08T23:18:33.907Z,11.38
2022-10-08T23:21:02.410Z,11.36
2022-10-08T23:23:29.068Z,11.31
2022-10-08T23:25:57.814Z,11.40
2022-10-08T23:28:24.870Z,11.27
2022-10-08T23:30:51.507Z,11.14
2022-10-08T23:33:18.185Z,10.91
2022-10-08T23:35:44.834Z,11.04
2022-10-08T23:38:11.348Z,11.09
2022-10-08T23:40:37.959Z,11.07
2022-10-08T23:43:04.606Z,11.02
2022-10-08T23:45:31.227Z,11.05
2022-10-08T23:47:57.837Z,11.15
2022-10-08T23:50:24.427Z,11.01
2022-10-08T23:52:51.281Z,10.93
2022-10-08T23:55:18.081Z,10.88
2022-10-08T23:57:44.635Z,10.85
